Time,TemperatureF,DewpointF,PressureIn,WindDirection,WindDirectionDegrees,WindSpeedMPH,WindSpeedGustMPH,Humidity,HourlyPrecipIn,Conditions,Clouds,dailyrainin,SoftwareType,DateUTC
2013-03-29 00:08:00,44.3,39.8,30.12,SSW,203,0.2,0.2,84,0.00,,,0.00,WUHU216HW,2013-03-29 07:08:00,
2013-03-29 00:13:00,44.5,40.2,30.12,SSW,203,0.2,1.8,85,0.00,,,0.00,WUHU216HW,2013-03-29 07:13:00,
2013-03-29 00:18:00,44.8,40.9,30.13,SSW,203,1.6,1.8,86,0.00,,,0.00,WUHU216HW,2013-03-29 07:18:00,
2013-03-29 00:23:00,45.0,41.0,30.13,SSW,203,1.6,3.1,86,0.00,,,0.00,WUHU216HW,2013-03-29 07:23:00,
2013-03-29 00:28:00,44.8,40.9,30.13,SW,225,3.1,3.1,86,0.00,,,0.00,WUHU216HW,2013-03-29 07:28:00,
2013-03-29 00:33:00,45.0,40.8,30.12,SW,225,0.2,3.1,85,0.00,,,0.00,WUHU216HW,2013-03-29 07:33:00,
2013-03-29 00:38:00,45.0,40.8,30.13,SW,225,3.1,3.1,85,0.00,,,0.00,WUHU216HW,2013-03-29 07:38:00,
2013-03-29 00:43:00,45.0,40.8,30.12,SW,225,1.3,3.1,85,0.00,,,0.00,WUHU216HW,2013-03-29 07:43:00,
2013-03-29 00:48:00,45.7,42.1,30.13,WNW,293,1.6,3.1,87,0.00,,,0.00,WUHU216HW,2013-03-29 07:48:00,
2013-03-29 00:53:00,46.4,42.2,30.13,SW,225,1.8,3.1,85,0.00,,,0.00,WUHU216HW,2013-03-29 07:53:00,
2013-03-29 00:58:00,46.6,42.4,30.13,WSW,248,1.8,3.1,85,0.00,,,0.00,WUHU216HW,2013-03-29 07:58:00,
2013-03-29 01:03:00,46.6,42.0,30.12,West,270,0.2,1.8,84,0.00,,,0.00,WUHU216HW,2013-03-29 08:03:00,
2013-03-29 01:08:00,46.6,42.4,30.12,WSW,248,1.3,1.8,85,0.00,,,0.00,WUHU216HW,2013-03-29 08:08:00,
2013-03-29 01:13:00,46.6,42.4,30.14,SSE,158,2.2,2.2,85,0.00,,,0.00,WUHU216HW,2013-03-29 08:13:00,
2013-03-29 01:18:00,45.7,40.9,30.14,SSE,158,2.0,2.5,83,0.00,,,0.00,WUHU216HW,2013-03-29 08:18:00,
2013-03-29 01:23:00,45.0,40.1,30.14,SSE,158,2.5,2.5,83,0.00,,,0.00,WUHU216HW,2013-03-29 08:23:00,
2013-03-29 01:28:00,44.8,40.3,30.14,South,180,2.5,2.5,84,0.00,,,0.00,WUHU216HW,2013-03-29 08:28:00,
2013-03-29 01:33:00,44.6,39.8,30.14,South,180,1.8,2.5,83,0.00,,,0.00,WUHU216HW,2013-03-29 08:33:00,
2013-03-29 01:38:00,44.6,40.2,30.14,South,180,2.5,2.5,84,0.00,,,0.00,WUHU216HW,2013-03-29 08:38:00,
2013-03-29 01:43:00,44.8,40.6,30.14,SSE,158,2.5,2.5,85,0.00,,,0.00,WUHU216HW,2013-03-29 08:43:00,
2013-03-29 01:48:00,44.8,40.3,30.12,SSE,158,1.3,2.5,84,0.00,,,0.00,WUHU216HW,2013-03-29 08:48:00,
2013-03-29 01:53:00,44.8,40.3,30.12,SSE,158,1.3,1.6,84,0.00,,,0.00,WUHU216HW,2013-03-29 08:53:00,
2013-03-29 01:58:00,44.8,40.3,30.12,SSE,158,1.3,1.6,84,0.00,,,0.00,WUHU216HW,2013-03-29 08:58:00,
2013-03-29 02:03:00,45.0,40.5,30.14,SSE,158,0.0,1.6,84,0.00,,,0.00,WUHU216HW,2013-03-29 09:03:00,
2013-03-29 02:08:00,45.0,40.5,30.14,SSE,158,1.6,1.6,84,0.00,,,0.00,WUHU216HW,2013-03-29 09:08:00,
2013-03-29 02:13:00,45.2,41.2,30.14,South,180,0.4,1.6,86,0.00,,,0.00,WUHU216HW,2013-03-29 09:13:00,
2013-03-29 02:19:00,45.2,41.2,30.14,SSE,158,0.0,1.6,86,0.00,,,0.00,WUHU216HW,2013-03-29 09:19:00,
2013-03-29 02:24:00,45.2,41.0,30.15,SSW,203,1.6,1.8,85,0.00,,,0.00,WUHU216HW,2013-03-29 09:24:00,
2013-03-29 02:29:00,45.2,41.0,30.15,SSW,203,1.6,1.8,85,0.00,,,0.00,WUHU216HW,2013-03-29 09:29:00,
2013-03-29 02:34:00,45.2,41.0,30.15,SSW,203,0.4,1.6,85,0.00,,,0.00,WUHU216HW,2013-03-29 09:34:00,
2013-03-29 02:39:00,45.4,41.1,30.15,SSW,203,1.8,1.8,85,0.00,,,0.00,WUHU216HW,2013-03-29 09:39:00,
2013-03-29 02:44:00,45.4,41.1,30.15,WSW,248,1.6,1.8,85,0.00,,,0.00,WUHU216HW,2013-03-29 09:44:00,
2013-03-29 02:49:00,45.4,41.1,30.15,WSW,248,0.0,1.8,85,0.00,,,0.00,WUHU216HW,2013-03-29 09:49:00,
2013-03-29 02:54:00,45.4,41.1,30.15,WSW,248,1.6,1.8,85,0.00,,,0.00,WUHU216HW,2013-03-29 09:54:00,
2013-03-29 02:59:00,45.2,41.0,30.15,WSW,248,0.0,1.6,85,0.00,,,0.00,WUHU216HW,2013-03-29 09:59:00,
2013-03-29 03:04:00,45.2,41.0,30.15,South,180,1.1,1.6,85,0.00,,,0.00,WUHU216HW,2013-03-29 10:04:00,
2013-03-29 03:09:00,45.0,40.8,30.15,SSW,203,1.1,1.1,85,0.00,,,0.00,WUHU216HW,2013-03-29 10:09:00,
2013-03-29 03:14:00,45.0,41.0,30.16,SW,225,0.4,1.1,86,0.00,,,0.00,WUHU216HW,2013-03-29 10:14:00,
2013-03-29 03:19:00,44.8,40.9,30.15,WSW,248,1.1,1.1,86,0.00,,,0.00,WUHU216HW,2013-03-29 10:19:00,
2013-03-29 03:24:00,44.6,40.4,30.15,WSW,248,1.1,1.1,85,0.00,,,0.00,WUHU216HW,2013-03-29 10:24:00,
2013-03-29 03:29:00,45.0,41.4,30.16,West,270,0.4,1.1,87,0.00,,,0.00,WUHU216HW,2013-03-29 10:29:00,
2013-03-29 03:34:00,45.5,42.2,30.16,WSW,248,0.7,0.7,88,0.00,,,0.00,WUHU216HW,2013-03-29 10:34:00,
2013-03-29 03:39:00,45.7,42.4,30.15,WSW,248,0.0,0.7,88,0.00,,,0.00,WUHU216HW,2013-03-29 10:39:00,
2013-03-29 03:44:00,46.1,42.5,30.16,NW,315,0.7,1.1,87,0.00,,,0.00,WUHU216HW,2013-03-29 10:44:00,
2013-03-29 03:49:00,46.1,42.5,30.15,WNW,293,0.0,1.1,87,0.00,,,0.00,WUHU216HW,2013-03-29 10:49:00,
2013-03-29 03:54:00,46.1,42.1,30.17,NW,315,0.7,1.1,86,0.00,,,0.00,WUHU216HW,2013-03-29 10:54:00,
2013-03-29 03:59:00,46.1,42.5,30.15,WSW,248,1.1,1.1,87,0.00,,,0.00,WUHU216HW,2013-03-29 10:59:00,
2013-03-29 04:04:00,45.9,42.3,30.15,SW,225,0.0,1.1,87,0.00,,,0.00,WUHU216HW,2013-03-29 11:04:00,
2013-03-29 04:09:00,45.7,42.1,30.17,West,270,1.8,1.8,87,0.00,,,0.00,WUHU216HW,2013-03-29 11:09:00,
2013-03-29 04:14:00,45.5,42.0,30.17,WSW,248,1.1,1.8,87,0.00,,,0.00,WUHU216HW,2013-03-29 11:14:00,
2013-03-29 04:19:00,45.2,41.9,30.17,WNW,293,1.1,1.6,88,0.00,,,0.00,WUHU216HW,2013-03-29 11:19:00,
2013-03-29 04:24:00,44.6,41.7,30.17,WSW,248,1.6,1.6,89,0.00,,,0.00,WUHU216HW,2013-03-29 11:24:00,
2013-03-29 04:29:00,44.3,41.3,30.17,SW,225,2.2,2.2,89,0.00,,,0.00,WUHU216HW,2013-03-29 11:29:00,
2013-03-29 04:34:00,43.9,41.0,30.17,SW,225,0.7,2.2,89,0.00,,,0.00,WUHU216HW,2013-03-29 11:34:00,
2013-03-29 04:39:00,43.6,40.6,30.17,SW,225,2.7,2.7,89,0.00,,,0.00,WUHU216HW,2013-03-29 11:39:00,
2013-03-29 04:44:00,43.6,40.6,30.17,SW,225,0.7,2.7,89,0.00,,,0.00,WUHU216HW,2013-03-29 11:44:00,
2013-03-29 04:49:00,43.6,40.2,30.17,WSW,248,0.7,0.7,88,0.00,,,0.00,WUHU216HW,2013-03-29 11:49:00,
2013-03-29 04:54:00,43.4,40.1,30.17,SW,225,1.3,1.3,88,0.00,,,0.00,WUHU216HW,2013-03-29 11:54:00,
2013-03-29 04:59:00,43.2,39.9,30.17,WSW,248,0.4,1.3,88,0.00,,,0.00,WUHU216HW,2013-03-29 11:59:00,
2013-03-29 05:04:00,43.0,39.4,30.17,SSW,203,0.7,0.7,87,0.00,,,0.00,WUHU216HW,2013-03-29 12:04:00,
2013-03-29 05:09:00,42.8,39.5,30.17,NW,315,0.7,0.7,88,0.00,,,0.00,WUHU216HW,2013-03-29 12:09:00,
2013-03-29 05:14:00,42.7,39.7,30.18,WNW,293,0.9,0.9,89,0.00,,,0.00,WUHU216HW,2013-03-29 12:14:00,
2013-03-29 05:19:00,42.7,39.3,30.18,West,270,0.7,0.9,88,0.00,,,0.00,WUHU216HW,2013-03-29 12:19:00,
2013-03-29 05:24:00,42.5,39.5,30.17,West,270,0.7,0.9,89,0.00,,,0.00,WUHU216HW,2013-03-29 12:24:00,
2013-03-29 05:29:00,42.5,39.5,30.18,WSW,248,0.9,0.9,89,0.00,,,0.00,WUHU216HW,2013-03-29 12:29:00,
2013-03-29 05:34:00,42.5,39.5,30.17,West,270,0.7,0.9,89,0.00,,,0.00,WUHU216HW,2013-03-29 12:34:00,
2013-03-29 05:39:00,42.5,39.5,30.17,WNW,293,0.7,0.9,89,0.00,,,0.00,WUHU216HW,2013-03-29 12:39:00,
2013-03-29 05:44:00,42.3,39.3,30.17,West,270,0.7,0.9,89,0.00,,,0.00,WUHU216HW,2013-03-29 12:44:00,
2013-03-29 05:49:00,42.3,39.6,30.19,NW,315,0.9,0.9,90,0.00,,,0.00,WUHU216HW,2013-03-29 12:49:00,
2013-03-29 05:54:00,42.1,39.4,30.19,WSW,248,1.8,1.8,90,0.00,,,0.00,WUHU216HW,2013-03-29 12:54:00,
2013-03-29 05:59:00,42.1,39.4,30.17,WNW,293,0.7,1.8,90,0.00,,,0.00,WUHU216HW,2013-03-29 12:59:00,
2013-03-29 06:04:00,42.1,39.4,30.18,WNW,293,0.9,1.1,90,0.00,,,0.00,WUHU216HW,2013-03-29 13:04:00,
2013-03-29 06:09:00,42.1,39.4,30.19,NW,315,0.0,1.1,90,0.00,,,0.00,WUHU216HW,2013-03-29 13:09:00,
2013-03-29 06:14:00,42.5,39.8,30.20,WNW,293,0.4,0.9,90,0.00,,,0.00,WUHU216HW,2013-03-29 13:14:00,
2013-03-29 06:19:00,42.5,39.8,30.17,West,270,0.7,0.7,90,0.00,,,0.00,WUHU216HW,2013-03-29 13:19:00,
2013-03-29 06:24:00,42.7,40.0,30.17,WSW,248,0.7,0.9,90,0.00,,,0.00,WUHU216HW,2013-03-29 13:24:00,
2013-03-29 06:29:00,42.7,40.2,30.21,WSW,248,2.5,2.5,91,0.00,,,0.00,WUHU216HW,2013-03-29 13:29:00,
2013-03-29 06:34:00,42.7,40.5,30.21,SSW,203,2.5,2.5,92,0.00,,,0.00,WUHU216HW,2013-03-29 13:34:00,
2013-03-29 06:39:00,42.7,40.5,30.21,NW,315,0.7,2.5,92,0.00,,,0.00,WUHU216HW,2013-03-29 13:39:00,
2013-03-29 06:44:00,42.5,40.3,30.17,West,270,0.7,2.5,92,0.00,,,0.00,WUHU216HW,2013-03-29 13:44:00,
2013-03-29 06:49:00,42.5,40.3,30.21,SW,225,0.7,0.7,92,0.00,,,0.00,WUHU216HW,2013-03-29 13:49:00,
2013-03-29 06:54:00,42.5,40.3,30.21,WSW,248,1.8,1.8,92,0.00,,,0.00,WUHU216HW,2013-03-29 13:54:00,
2013-03-29 06:59:00,42.5,40.6,30.21,SSW,203,1.8,1.8,93,0.00,,,0.00,WUHU216HW,2013-03-29 13:59:00,
2013-03-29 07:04:00,42.5,40.6,30.21,SW,225,0.9,1.8,93,0.00,,,0.00,WUHU216HW,2013-03-29 14:04:00,
2013-03-29 07:09:00,42.5,40.3,30.21,SW,225,0.7,1.8,92,0.00,,,0.00,WUHU216HW,2013-03-29 14:09:00,
2013-03-29 07:14:00,42.5,40.3,30.21,SW,225,0.7,0.9,92,0.00,,,0.00,WUHU216HW,2013-03-29 14:14:00,
2013-03-29 07:19:00,42.3,40.1,30.21,South,180,0.9,0.9,92,0.00,,,0.00,WUHU216HW,2013-03-29 14:19:00,
2013-03-29 07:24:00,42.3,40.1,30.21,WSW,248,1.1,1.1,92,0.00,,,0.00,WUHU216HW,2013-03-29 14:24:00,
2013-03-29 07:29:00,42.5,40.3,30.20,SW,225,0.2,1.1,92,0.00,,,0.00,WUHU216HW,2013-03-29 14:29:00,
2013-03-29 07:34:00,42.3,40.1,30.20,NW,315,0.2,1.1,92,0.00,,,0.00,WUHU216HW,2013-03-29 14:34:00,
2013-03-29 07:39:00,42.5,40.3,30.22,NW,315,1.1,1.1,92,0.00,,,0.00,WUHU216HW,2013-03-29 14:39:00,
2013-03-29 07:44:00,42.5,40.3,30.21,NW,315,0.7,1.1,92,0.00,,,0.00,WUHU216HW,2013-03-29 14:44:00,
2013-03-29 07:49:00,42.8,40.7,30.22,NW,315,0.7,1.1,92,0.00,,,0.00,WUHU216HW,2013-03-29 14:49:00,
2013-03-29 07:54:00,42.8,40.7,30.22,SW,225,1.1,1.1,92,0.00,,,0.00,WUHU216HW,2013-03-29 14:54:00,
2013-03-29 07:59:00,42.8,41.0,30.22,NW,315,0.4,1.1,93,0.00,,,0.00,WUHU216HW,2013-03-29 14:59:00,
2013-03-29 08:04:00,42.8,41.0,30.21,NW,315,0.7,1.6,93,0.00,,,0.00,WUHU216HW,2013-03-29 15:04:00,
2013-03-29 08:09:00,42.8,41.0,30.22,NW,315,0.4,1.6,93,0.00,,,0.00,WUHU216HW,2013-03-29 15:09:00,
2013-03-29 08:14:00,43.0,41.1,30.21,West,270,0.7,1.6,93,0.00,,,0.00,WUHU216HW,2013-03-29 15:14:00,
2013-03-29 08:19:00,43.2,41.3,30.22,WNW,293,1.6,1.6,93,0.00,,,0.00,WUHU216HW,2013-03-29 15:19:00,
2013-03-29 08:24:00,43.4,41.2,30.22,SW,225,0.4,1.6,92,0.00,,,0.00,WUHU216HW,2013-03-29 15:24:00,
2013-03-29 08:29:00,43.4,41.2,30.22,NNW,338,1.6,1.6,92,0.00,,,0.00,WUHU216HW,2013-03-29 15:29:00,
2013-03-29 08:34:00,43.9,41.8,30.21,WSW,248,0.7,1.6,92,0.00,,,0.00,WUHU216HW,2013-03-29 15:34:00,
2013-03-29 08:39:00,43.9,41.8,30.21,WNW,293,0.7,1.6,92,0.00,,,0.00,WUHU216HW,2013-03-29 15:39:00,
2013-03-29 08:44:00,44.3,42.1,30.22,NNW,338,1.6,2.2,92,0.00,,,0.00,WUHU216HW,2013-03-29 15:44:00,
2013-03-29 08:49:00,44.3,42.1,30.23,WNW,293,0.7,2.2,92,0.00,,,0.00,WUHU216HW,2013-03-29 15:49:00,
2013-03-29 08:54:00,44.3,42.1,30.23,NW,315,1.8,1.8,92,0.00,,,0.00,WUHU216HW,2013-03-29 15:54:00,
2013-03-29 08:59:00,44.5,42.0,30.23,NW,315,1.6,1.8,91,0.00,,,0.00,WUHU216HW,2013-03-29 15:59:00,
2013-03-29 09:04:00,44.6,42.2,30.23,North,0,1.6,1.6,91,0.00,,,0.00,WUHU216HW,2013-03-29 16:04:00,
2013-03-29 09:09:00,45.0,42.6,30.23,NNW,338,0.0,1.6,91,0.00,,,0.00,WUHU216HW,2013-03-29 16:09:00,
2013-03-29 09:14:00,45.2,42.8,30.23,WNW,293,1.6,1.6,91,0.00,,,0.00,WUHU216HW,2013-03-29 16:14:00,
2013-03-29 09:19:00,45.2,43.0,30.23,WNW,293,0.0,1.6,92,0.00,,,0.00,WUHU216HW,2013-03-29 16:19:00,
2013-03-29 09:24:00,45.5,43.1,30.23,WNW,293,1.6,1.6,91,0.00,,,0.00,WUHU216HW,2013-03-29 16:24:00,
2013-03-29 09:29:00,45.7,43.3,30.23,NNW,338,1.6,1.6,91,0.00,,,0.00,WUHU216HW,2013-03-29 16:29:00,
2013-03-29 09:34:00,45.7,43.3,30.23,SSW,203,0.0,1.6,91,0.00,,,0.00,WUHU216HW,2013-03-29 16:34:00,
2013-03-29 09:39:00,45.7,43.0,30.23,SSW,203,0.0,1.6,90,0.00,,,0.00,WUHU216HW,2013-03-29 16:39:00,
2013-03-29 09:44:00,45.4,42.7,30.23,SW,225,0.0,3.1,90,0.00,,,0.00,WUHU216HW,2013-03-29 16:44:00,
2013-03-29 09:49:00,45.5,42.8,30.23,SE,135,0.0,3.1,90,0.00,,,0.00,WUHU216HW,2013-03-29 16:49:00,
2013-03-29 09:54:00,45.7,43.0,30.24,SW,225,0.4,3.1,90,0.00,,,0.00,WUHU216HW,2013-03-29 16:54:00,
2013-03-29 09:59:00,45.9,43.2,30.24,NW,315,0.0,3.1,90,0.00,,,0.00,WUHU216HW,2013-03-29 16:59:00,
2013-03-29 10:04:00,46.1,43.4,30.24,North,0,3.1,3.1,90,0.00,,,0.00,WUHU216HW,2013-03-29 17:04:00,
2013-03-29 10:09:00,46.4,43.5,30.24,North,0,0.4,3.1,89,0.00,,,0.00,WUHU216HW,2013-03-29 17:09:00,
2013-03-29 10:14:00,46.8,43.8,30.24,NNE,23,1.6,1.6,89,0.00,,,0.00,WUHU216HW,2013-03-29 17:14:00,
2013-03-29 10:19:00,46.8,43.5,30.24,North,0,0.4,3.1,88,0.00,,,0.00,WUHU216HW,2013-03-29 17:19:00,
2013-03-29 10:24:00,47.0,43.7,30.24,NNE,23,3.1,3.1,88,0.00,,,0.00,WUHU216HW,2013-03-29 17:24:00,
2013-03-29 10:29:00,47.5,44.2,30.24,NE,45,2.5,3.1,88,0.00,,,0.00,WUHU216HW,2013-03-29 17:29:00,
2013-03-29 10:34:00,47.5,44.2,30.24,NE,45,2.5,2.5,88,0.00,,,0.00,WUHU216HW,2013-03-29 17:34:00,
2013-03-29 10:39:00,48.4,45.1,30.24,ENE,68,2.5,2.5,88,0.00,,,0.00,WUHU216HW,2013-03-29 17:39:00,
2013-03-29 10:44:00,49.0,45.3,30.24,NNW,338,1.6,2.5,87,0.00,,,0.00,WUHU216HW,2013-03-29 17:44:00,
2013-03-29 10:49:00,49.0,45.3,30.24,NNW,338,1.6,1.6,87,0.00,,,0.00,WUHU216HW,2013-03-29 17:49:00,
2013-03-29 10:54:00,49.3,45.3,30.24,NNE,23,2.5,2.5,86,0.00,,,0.00,WUHU216HW,2013-03-29 17:54:00,
2013-03-29 10:59:00,49.3,45.3,30.24,NNE,23,2.5,2.5,86,0.00,,,0.00,WUHU216HW,2013-03-29 17:59:00,
2013-03-29 11:05:00,49.9,45.5,30.24,WNW,293,1.6,2.5,85,0.00,,,0.00,WUHU216HW,2013-03-29 18:05:00,
2013-03-29 11:10:00,49.7,45.0,30.24,NW,315,1.6,3.1,84,0.00,,,0.00,WUHU216HW,2013-03-29 18:10:00,
2013-03-29 11:15:00,49.9,45.5,30.24,NW,315,1.6,3.1,85,0.00,,,0.00,WUHU216HW,2013-03-29 18:15:00,
2013-03-29 11:20:00,49.9,45.5,30.25,North,0,1.8,2.0,85,0.00,,,0.00,WUHU216HW,2013-03-29 18:20:00,
2013-03-29 11:25:00,50.0,45.0,30.25,West,270,1.8,1.8,83,0.00,,,0.00,WUHU216HW,2013-03-29 18:25:00,
2013-03-29 11:30:00,50.0,45.4,30.25,North,0,1.8,1.8,84,0.00,,,0.00,WUHU216HW,2013-03-29 18:30:00,
2013-03-29 11:35:00,50.0,45.0,30.25,NNW,338,2.5,2.5,83,0.00,,,0.00,WUHU216HW,2013-03-29 18:35:00,
2013-03-29 11:40:00,50.2,44.9,30.25,SE,135,1.8,2.5,82,0.00,,,0.00,WUHU216HW,2013-03-29 18:40:00,
2013-03-29 11:45:00,50.2,44.9,30.25,SE,135,1.8,2.5,82,0.00,,,0.00,WUHU216HW,2013-03-29 18:45:00,
2013-03-29 11:50:00,50.8,45.5,30.25,NW,315,1.8,2.5,82,0.00,,,0.00,WUHU216HW,2013-03-29 18:50:00,
2013-03-29 11:55:00,50.4,45.1,30.25,NW,315,2.0,2.5,82,0.00,,,0.00,WUHU216HW,2013-03-29 18:55:00,
2013-03-29 12:00:00,50.8,45.5,30.25,NW,315,1.1,2.0,82,0.00,,,0.00,WUHU216HW,2013-03-29 19:00:00,
2013-03-29 12:05:00,50.9,45.3,30.25,North,0,2.5,2.5,81,0.00,,,0.00,WUHU216HW,2013-03-29 19:05:00,
2013-03-29 12:10:00,51.8,46.2,30.25,WNW,293,1.8,2.5,81,0.00,,,0.00,WUHU216HW,2013-03-29 19:10:00,
2013-03-29 12:15:00,52.2,46.3,30.25,NNE,23,1.8,2.5,80,0.00,,,0.00,WUHU216HW,2013-03-29 19:15:00,
2013-03-29 12:20:00,52.4,45.4,30.25,East,90,1.1,2.5,77,0.00,,,0.00,WUHU216HW,2013-03-29 19:20:00,
2013-03-29 12:25:00,52.7,46.1,30.25,WSW,248,1.1,1.8,78,0.00,,,0.00,WUHU216HW,2013-03-29 19:25:00,
2013-03-29 12:30:00,53.3,45.9,30.25,North,0,1.3,1.8,76,0.00,,,0.00,WUHU216HW,2013-03-29 19:30:00,
2013-03-29 12:36:00,53.3,46.3,30.25,North,0,1.1,1.3,77,0.00,,,0.00,WUHU216HW,2013-03-29 19:36:00,
2013-03-29 12:41:00,53.6,46.6,30.25,NW,315,0.9,1.3,77,0.00,,,0.00,WUHU216HW,2013-03-29 19:41:00,
2013-03-29 12:46:00,53.6,46.6,30.25,NNE,23,0.9,1.3,77,0.00,,,0.00,WUHU216HW,2013-03-29 19:46:00,
2013-03-29 12:51:00,53.8,46.5,30.25,NW,315,0.9,2.7,76,0.00,,,0.00,WUHU216HW,2013-03-29 19:51:00,
2013-03-29 12:56:00,54.4,47.0,30.25,NNW,338,1.1,2.7,76,0.00,,,0.00,WUHU216HW,2013-03-29 19:56:00,
2013-03-29 13:01:00,54.0,46.6,30.25,West,270,1.1,2.7,76,0.00,,,0.00,WUHU216HW,2013-03-29 20:01:00,
2013-03-29 13:06:00,54.4,46.6,30.25,SSW,203,2.7,2.7,75,0.00,,,0.00,WUHU216HW,2013-03-29 20:06:00,
2013-03-29 13:11:00,54.5,47.1,30.25,WSW,248,0.9,2.7,76,0.00,,,0.00,WUHU216HW,2013-03-29 20:11:00,
2013-03-29 13:16:00,54.5,46.5,30.25,WSW,248,2.5,2.7,74,0.00,,,0.00,WUHU216HW,2013-03-29 20:16:00,
2013-03-29 13:21:00,54.5,46.5,30.25,NNW,338,1.1,2.7,74,0.00,,,0.00,WUHU216HW,2013-03-29 20:21:00,
2013-03-29 13:26:00,54.9,46.7,30.24,NNW,338,1.3,2.7,74,0.00,,,0.00,WUHU216HW,2013-03-29 20:26:00,
2013-03-29 13:31:00,55.1,46.9,30.25,North,0,1.1,1.3,74,0.00,,,0.00,WUHU216HW,2013-03-29 20:31:00,
2013-03-29 13:36:00,55.4,46.6,30.25,NW,315,1.1,1.1,72,0.00,,,0.00,WUHU216HW,2013-03-29 20:36:00,
2013-03-29 13:41:00,56.5,47.3,30.25,WNW,293,1.1,3.4,71,0.00,,,0.00,WUHU216HW,2013-03-29 20:41:00,
2013-03-29 13:46:00,56.2,47.3,30.24,SSW,203,3.8,3.8,72,0.00,,,0.00,WUHU216HW,2013-03-29 20:46:00,
2013-03-29 13:51:00,56.5,47.6,30.25,West,270,1.1,3.8,72,0.00,,,0.00,WUHU216HW,2013-03-29 20:51:00,
2013-03-29 13:56:00,57.2,48.2,30.24,NW,315,3.8,3.8,72,0.00,,,0.00,WUHU216HW,2013-03-29 20:56:00,
2013-03-29 14:01:00,58.0,49.0,30.25,North,0,1.1,3.8,72,0.00,,,0.00,WUHU216HW,2013-03-29 21:01:00,
2013-03-29 14:06:00,58.1,48.4,30.24,North,0,1.6,3.8,70,0.00,,,0.00,WUHU216HW,2013-03-29 21:06:00,
2013-03-29 14:11:00,58.3,48.2,30.24,NNE,23,3.8,3.8,69,0.00,,,0.00,WUHU216HW,2013-03-29 21:11:00,
2013-03-29 14:16:00,58.3,48.2,30.24,North,0,3.8,3.8,69,0.00,,,0.00,WUHU216HW,2013-03-29 21:16:00,
2013-03-29 14:22:00,58.3,48.2,30.25,NW,315,1.1,3.8,69,0.00,,,0.00,WUHU216HW,2013-03-29 21:22:00,
2013-03-29 14:27:00,58.5,48.3,30.25,North,0,1.1,3.8,69,0.00,,,0.00,WUHU216HW,2013-03-29 21:27:00,
2013-03-29 14:32:00,59.0,48.9,30.24,North,0,3.8,3.8,69,0.00,,,0.00,WUHU216HW,2013-03-29 21:32:00,
2013-03-29 14:37:00,60.1,49.1,30.25,North,0,1.1,3.8,67,0.00,,,0.00,WUHU216HW,2013-03-29 21:37:00,
2013-03-29 14:42:00,60.8,49.5,30.24,North,0,3.8,3.8,66,0.00,,,0.00,WUHU216HW,2013-03-29 21:42:00,
2013-03-29 14:47:00,62.3,50.8,30.25,North,0,1.1,3.8,66,0.00,,,0.00,WUHU216HW,2013-03-29 21:47:00,
2013-03-29 14:52:00,62.3,50.0,30.23,North,0,2.5,3.8,64,0.00,,,0.00,WUHU216HW,2013-03-29 21:52:00,
2013-03-29 14:57:00,62.3,50.0,30.25,North,0,1.1,3.8,64,0.00,,,0.00,WUHU216HW,2013-03-29 21:57:00,
2013-03-29 15:02:00,62.6,50.2,30.24,NNW,338,1.6,2.5,64,0.00,,,0.00,WUHU216HW,2013-03-29 22:02:00,
2013-03-29 15:07:00,63.4,50.1,30.25,NW,315,1.1,2.5,62,0.00,,,0.00,WUHU216HW,2013-03-29 22:07:00,
2013-03-29 15:12:00,63.9,49.2,30.25,NW,315,1.1,2.5,59,0.00,,,0.00,WUHU216HW,2013-03-29 22:12:00,
2013-03-29 15:17:00,64.1,49.9,30.24,NNW,338,1.6,3.8,60,0.00,,,0.00,WUHU216HW,2013-03-29 22:17:00,
2013-03-29 15:22:00,63.7,49.6,30.23,North,0,4.3,5.6,60,0.00,,,0.00,WUHU216HW,2013-03-29 22:22:00,
2013-03-29 15:27:00,63.7,50.1,30.23,North,0,5.6,5.6,61,0.00,,,0.00,WUHU216HW,2013-03-29 22:27:00,
2013-03-29 15:32:00,63.0,49.0,30.24,NE,45,1.6,5.6,60,0.00,,,0.00,WUHU216HW,2013-03-29 22:32:00,
2013-03-29 15:37:00,61.6,48.4,30.23,NNW,338,2.0,5.6,62,0.00,,,0.00,WUHU216HW,2013-03-29 22:37:00,
2013-03-29 15:42:00,60.8,48.6,30.23,North,0,3.6,5.6,64,0.00,,,0.00,WUHU216HW,2013-03-29 22:42:00,
2013-03-29 15:47:00,61.0,48.8,30.22,NNW,338,4.0,4.0,64,0.00,,,0.00,WUHU216HW,2013-03-29 22:47:00,
2013-03-29 15:52:00,61.9,49.2,30.23,North,0,3.4,4.0,63,0.00,,,0.00,WUHU216HW,2013-03-29 22:52:00,
2013-03-29 15:57:00,62.6,49.9,30.22,North,0,2.5,4.0,63,0.00,,,0.00,WUHU216HW,2013-03-29 22:57:00,
2013-03-29 16:02:00,63.9,49.8,30.25,West,270,1.1,3.4,60,0.00,,,0.00,WUHU216HW,2013-03-29 23:02:00,
2013-03-29 16:07:00,64.6,48.0,30.22,NW,315,0.4,2.2,55,0.00,,,0.00,WUHU216HW,2013-03-29 23:07:00,
2013-03-29 16:12:00,64.8,48.6,30.22,WSW,248,1.3,2.2,56,0.00,,,0.00,WUHU216HW,2013-03-29 23:12:00,
2013-03-29 16:17:00,66.2,49.6,30.22,SW,225,0.4,1.3,55,0.00,,,0.00,WUHU216HW,2013-03-29 23:17:00,
2013-03-29 16:22:00,67.9,49.2,30.22,SW,225,0.4,1.3,51,0.00,,,0.00,WUHU216HW,2013-03-29 23:22:00,
2013-03-29 16:27:00,67.7,47.3,30.21,SW,225,1.3,1.3,48,0.00,,,0.00,WUHU216HW,2013-03-29 23:27:00,
2013-03-29 16:32:00,68.8,48.2,30.21,WSW,248,1.1,1.3,48,0.00,,,0.00,WUHU216HW,2013-03-29 23:32:00,
2013-03-29 16:37:00,69.8,49.8,30.22,NNW,338,2.2,2.2,49,0.00,,,0.00,WUHU216HW,2013-03-29 23:37:00,
2013-03-29 16:42:00,70.2,50.8,30.22,North,0,3.1,3.1,50,0.00,,,0.00,WUHU216HW,2013-03-29 23:42:00,
2013-03-29 16:47:00,69.7,49.7,30.21,WSW,248,0.7,3.1,49,0.00,,,0.00,WUHU216HW,2013-03-29 23:47:00,
2013-03-29 16:52:00,70.2,51.2,30.22,NE,45,3.1,3.1,51,0.00,,,0.00,WUHU216HW,2013-03-29 23:52:00,
2013-03-29 16:57:00,69.3,48.7,30.21,North,0,1.1,3.1,48,0.00,,,0.00,WUHU216HW,2013-03-29 23:57:00,
2013-03-29 17:02:00,68.8,49.4,30.22,NNE,23,3.1,3.1,50,0.00,,,0.00,WUHU216HW,2013-03-30 00:02:00,
2013-03-29 17:07:00,68.4,49.6,30.22,North,0,3.1,3.1,51,0.00,,,0.00,WUHU216HW,2013-03-30 00:07:00,
2013-03-29 17:12:00,67.3,48.6,30.22,North,0,3.1,3.1,51,0.00,,,0.00,WUHU216HW,2013-03-30 00:12:00,
2013-03-29 17:17:00,66.4,47.8,30.21,North,0,1.1,3.1,51,0.00,,,0.00,WUHU216HW,2013-03-30 00:17:00,
2013-03-29 17:22:00,65.0,47.3,30.21,NNW,338,1.1,3.1,53,0.00,,,0.00,WUHU216HW,2013-03-30 00:22:00,
2013-03-29 17:27:00,64.8,46.7,30.21,NNW,338,1.1,3.1,52,0.00,,,0.00,WUHU216HW,2013-03-30 00:27:00,
2013-03-29 17:32:00,63.4,45.8,30.21,NNE,23,1.1,3.1,53,0.00,,,0.00,WUHU216HW,2013-03-30 00:32:00,
2013-03-29 17:37:00,60.3,45.5,30.21,NNW,338,1.1,3.1,58,0.00,,,0.00,WUHU216HW,2013-03-30 00:37:00,
2013-03-29 17:42:00,59.6,46.2,30.22,WSW,248,1.8,3.1,61,0.00,,,0.00,WUHU216HW,2013-03-30 00:42:00,
2013-03-29 17:47:00,59.0,45.2,30.22,WNW,293,1.1,3.1,60,0.00,,,0.00,WUHU216HW,2013-03-30 00:47:00,
2013-03-29 17:52:00,58.0,44.7,30.22,West,270,1.1,3.1,61,0.00,,,0.00,WUHU216HW,2013-03-30 00:52:00,
2013-03-29 17:57:00,57.6,44.6,30.22,NW,315,3.1,3.1,62,0.00,,,0.00,WUHU216HW,2013-03-30 00:57:00,
2013-03-29 18:02:00,56.5,44.5,30.22,NW,315,2.5,3.1,64,0.00,,,0.00,WUHU216HW,2013-03-30 01:02:00,
2013-03-29 18:08:00,55.4,43.4,30.22,NW,315,2.5,3.1,64,0.00,,,0.00,WUHU216HW,2013-03-30 01:08:00,
2013-03-29 18:13:00,55.4,43.8,30.22,NW,315,0.4,3.1,65,0.00,,,0.00,WUHU216HW,2013-03-30 01:13:00,
2013-03-29 18:18:00,55.1,43.5,30.22,NNW,338,1.1,3.1,65,0.00,,,0.00,WUHU216HW,2013-03-30 01:18:00,
2013-03-29 18:23:00,53.8,43.5,30.22,WNW,293,1.1,3.1,68,0.00,,,0.00,WUHU216HW,2013-03-30 01:23:00,
2013-03-29 18:28:00,52.6,42.8,30.22,NNW,338,3.1,3.1,69,0.00,,,0.00,WUHU216HW,2013-03-30 01:28:00,
2013-03-29 18:33:00,52.2,42.9,30.22,WNW,293,2.2,3.1,70,0.00,,,0.00,WUHU216HW,2013-03-30 01:33:00,
2013-03-29 18:38:00,51.8,41.7,30.22,NNW,338,2.2,2.2,68,0.00,,,0.00,WUHU216HW,2013-03-30 01:38:00,
2013-03-29 18:43:00,51.3,42.3,30.22,NW,315,1.6,2.2,71,0.00,,,0.00,WUHU216HW,2013-03-30 01:43:00,
2013-03-29 18:48:00,50.6,41.6,30.22,NW,315,3.1,3.1,71,0.00,,,0.00,WUHU216HW,2013-03-30 01:48:00,
2013-03-29 18:53:00,50.4,41.4,30.22,NNW,338,1.6,3.1,71,0.00,,,0.00,WUHU216HW,2013-03-30 01:53:00,
2013-03-29 18:58:00,50.0,41.4,30.22,WNW,293,2.2,3.1,72,0.00,,,0.00,WUHU216HW,2013-03-30 01:58:00,
2013-03-29 19:03:00,49.7,41.1,30.22,NW,315,2.2,3.1,72,0.00,,,0.00,WUHU216HW,2013-03-30 02:03:00,
2013-03-29 19:08:00,49.1,40.5,30.22,WSW,248,2.2,3.1,72,0.00,,,0.00,WUHU216HW,2013-03-30 02:08:00,
2013-03-29 19:13:00,48.8,40.4,30.22,SW,225,3.1,3.1,73,0.00,,,0.00,WUHU216HW,2013-03-30 02:13:00,
2013-03-29 19:18:00,47.9,40.6,30.22,West,270,2.2,3.1,76,0.00,,,0.00,WUHU216HW,2013-03-30 02:18:00,
2013-03-29 19:23:00,46.8,40.7,30.22,WSW,248,2.2,3.1,79,0.00,,,0.00,WUHU216HW,2013-03-30 02:23:00,
2013-03-29 19:28:00,46.1,41.0,30.22,WSW,248,1.6,3.1,82,0.00,,,0.00,WUHU216HW,2013-03-30 02:28:00,
2013-03-29 19:33:00,46.1,41.0,30.22,WSW,248,1.6,3.1,82,0.00,,,0.00,WUHU216HW,2013-03-30 02:33:00,
2013-03-29 19:41:00,44.6,40.7,30.21,WSW,248,2.0,2.0,86,0.00,,,0.00,WUHU216HW,2013-03-30 02:41:00,
2013-03-29 19:46:00,44.6,41.1,30.21,SW,225,2.0,2.0,87,0.00,,,0.00,WUHU216HW,2013-03-30 02:46:00,
2013-03-29 19:51:00,44.3,40.7,30.21,WSW,248,1.8,2.0,87,0.00,,,0.00,WUHU216HW,2013-03-30 02:51:00,
2013-03-29 19:56:00,44.1,40.8,30.22,SW,225,2.2,2.2,88,0.00,,,0.00,WUHU216HW,2013-03-30 02:56:00,
2013-03-29 20:01:00,44.1,40.5,30.21,SW,225,2.0,2.2,87,0.00,,,0.00,WUHU216HW,2013-03-30 03:01:00,
2013-03-29 20:06:00,43.7,40.8,30.22,SSW,203,3.1,3.1,89,0.00,,,0.00,WUHU216HW,2013-03-30 03:06:00,
2013-03-29 20:11:00,43.7,40.4,30.22,SW,225,3.1,3.1,88,0.00,,,0.00,WUHU216HW,2013-03-30 03:11:00,
2013-03-29 20:16:00,43.6,40.6,30.22,WSW,248,3.1,3.1,89,0.00,,,0.00,WUHU216HW,2013-03-30 03:16:00,
2013-03-29 20:21:00,43.6,40.9,30.22,SW,225,2.5,3.1,90,0.00,,,0.00,WUHU216HW,2013-03-30 03:21:00,
2013-03-29 20:26:00,43.6,40.9,30.23,WSW,248,5.4,5.4,90,0.00,,,0.00,WUHU216HW,2013-03-30 03:26:00,
2013-03-29 20:31:00,43.4,40.7,30.23,West,270,2.9,5.4,90,0.00,,,0.00,WUHU216HW,2013-03-30 03:31:00,
2013-03-29 20:36:00,43.6,40.9,30.23,South,180,3.4,4.9,90,0.00,,,0.00,WUHU216HW,2013-03-30 03:36:00,
2013-03-29 20:41:00,43.4,41.0,30.23,WSW,248,5.4,5.4,91,0.00,,,0.00,WUHU216HW,2013-03-30 03:41:00,
2013-03-29 20:46:00,43.6,41.1,30.23,WSW,248,4.9,5.4,91,0.00,,,0.00,WUHU216HW,2013-03-30 03:46:00,
2013-03-29 20:51:00,43.6,41.1,30.24,WSW,248,1.8,4.9,91,0.00,,,0.00,WUHU216HW,2013-03-30 03:51:00,
2013-03-29 20:56:00,43.6,41.1,30.23,West,270,3.4,3.4,91,0.00,,,0.00,WUHU216HW,2013-03-30 03:56:00,
2013-03-29 21:01:00,43.6,41.1,30.21,WSW,248,1.8,3.4,91,0.00,,,0.00,WUHU216HW,2013-03-30 04:01:00,
2013-03-29 21:06:00,43.6,41.4,30.24,WSW,248,1.8,2.7,92,0.00,,,0.00,WUHU216HW,2013-03-30 04:06:00,
2013-03-29 21:11:00,43.6,41.4,30.24,WSW,248,1.8,2.7,92,0.00,,,0.00,WUHU216HW,2013-03-30 04:11:00,
2013-03-29 21:21:00,43.6,41.4,30.24,West,270,4.7,4.7,92,0.00,,,0.00,WUHU216HW,2013-03-30 04:21:00,
2013-03-29 21:26:00,43.6,41.4,30.21,WSW,248,1.8,4.7,92,0.00,,,0.00,WUHU216HW,2013-03-30 04:26:00,
2013-03-29 21:32:00,43.6,41.7,30.23,WSW,248,2.7,3.1,93,0.00,,,0.00,WUHU216HW,2013-03-30 04:32:00,
2013-03-29 21:37:00,43.6,41.7,30.23,West,270,2.7,4.7,93,0.00,,,0.00,WUHU216HW,2013-03-30 04:37:00,
2013-03-29 21:42:00,43.4,41.5,30.24,West,270,0.9,4.7,93,0.00,,,0.00,WUHU216HW,2013-03-30 04:42:00,
2013-03-29 21:47:00,43.4,41.5,30.24,South,180,2.2,2.2,93,0.00,,,0.00,WUHU216HW,2013-03-30 04:47:00,
2013-03-29 21:52:00,43.4,41.5,30.24,WSW,248,0.9,2.2,93,0.00,,,0.00,WUHU216HW,2013-03-30 04:52:00,
2013-03-29 21:57:00,43.4,41.5,30.24,WSW,248,0.4,1.1,93,0.00,,,0.00,WUHU216HW,2013-03-30 04:57:00,
2013-03-29 22:02:00,43.4,41.2,30.24,WSW,248,0.4,1.1,92,0.00,,,0.00,WUHU216HW,2013-03-30 05:02:00,
2013-03-29 22:07:00,43.2,41.0,30.24,WSW,248,1.1,1.1,92,0.00,,,0.00,WUHU216HW,2013-03-30 05:07:00,
2013-03-29 22:12:00,43.2,41.0,30.24,SW,225,0.4,1.1,92,0.00,,,0.00,WUHU216HW,2013-03-30 05:12:00,
2013-03-29 22:17:00,43.0,41.1,30.24,SW,225,1.6,1.6,93,0.00,,,0.00,WUHU216HW,2013-03-30 05:17:00,
2013-03-29 22:22:00,42.8,41.0,30.24,West,270,1.1,1.6,93,0.00,,,0.00,WUHU216HW,2013-03-30 05:22:00,
2013-03-29 22:27:00,42.8,40.7,30.24,WSW,248,0.4,1.6,92,0.00,,,0.00,WUHU216HW,2013-03-30 05:27:00,
2013-03-29 22:32:00,42.8,40.7,30.24,WSW,248,1.6,1.6,92,0.00,,,0.00,WUHU216HW,2013-03-30 05:32:00,
2013-03-29 22:37:00,42.7,40.2,30.24,West,270,0.4,1.6,91,0.00,,,0.00,WUHU216HW,2013-03-30 05:37:00,
2013-03-29 22:42:00,42.7,40.2,30.24,WNW,293,1.1,1.1,91,0.00,,,0.00,WUHU216HW,2013-03-30 05:42:00,
2013-03-29 22:47:00,42.7,40.2,30.24,NW,315,1.1,1.1,91,0.00,,,0.00,WUHU216HW,2013-03-30 05:47:00,
2013-03-29 22:52:00,42.3,39.9,30.24,WNW,293,1.1,1.8,91,0.00,,,0.00,WUHU216HW,2013-03-30 05:52:00,
2013-03-29 22:57:00,42.3,39.9,30.24,WNW,293,1.1,1.8,91,0.00,,,0.00,WUHU216HW,2013-03-30 05:57:00,
2013-03-29 23:02:00,42.1,39.7,30.24,WSW,248,1.1,1.1,91,0.00,,,0.00,WUHU216HW,2013-03-30 06:02:00,
2013-03-29 23:07:00,42.1,39.7,30.24,SSW,203,1.1,1.1,91,0.00,,,0.00,WUHU216HW,2013-03-30 06:07:00,
2013-03-29 23:12:00,41.9,39.5,30.24,West,270,1.1,1.1,91,0.00,,,0.00,WUHU216HW,2013-03-30 06:12:00,
2013-03-29 23:17:00,41.9,39.5,30.24,West,270,1.1,1.1,91,0.00,,,0.00,WUHU216HW,2013-03-30 06:17:00,
2013-03-29 23:22:00,41.9,39.5,30.24,WNW,293,1.1,1.1,91,0.00,,,0.00,WUHU216HW,2013-03-30 06:22:00,
2013-03-29 23:27:00,41.8,39.3,30.24,WSW,248,1.1,1.1,91,0.00,,,0.00,WUHU216HW,2013-03-30 06:27:00,
2013-03-29 23:32:00,41.6,39.2,30.24,West,270,0.4,1.1,91,0.00,,,0.00,WUHU216HW,2013-03-30 06:32:00,
2013-03-29 23:37:00,41.0,38.3,30.24,West,270,0.0,1.1,90,0.00,,,0.00,WUHU216HW,2013-03-30 06:37:00,
2013-03-29 23:42:00,40.9,38.2,30.24,WSW,248,1.1,1.1,90,0.00,,,0.00,WUHU216HW,2013-03-30 06:42:00,
2013-03-29 23:47:00,40.9,38.2,30.24,West,270,0.7,1.1,90,0.00,,,0.00,WUHU216HW,2013-03-30 06:47:00,
2013-03-29 23:52:00,40.7,38.0,30.24,West,270,1.1,1.1,90,0.00,,,0.00,WUHU216HW,2013-03-30 06:52:00,
2013-03-29 23:57:00,40.5,37.8,30.24,West,270,4.7,4.7,90,0.00,,,0.00,WUHU216HW,2013-03-30 06:57:00,